Time;durP1;ratioP1;P1;durP2;ratioP2;P2;SDS_P1;SDS_P2;PMS_P1;PMS_P2;Temp;Humidity;BMP_temperature;BMP_pressure;BME280_temperature;BME280_humidity;BME280_pressure;Samples;Min_cycle;Max_cycle;Signal;HPM_P1;HPM_P2
2021/07/09 00:03:47;;;;;;;8.50;7.80;;;;;;;27.91;70.98;100657.97;20855331;28;20413;-65
2021/07/09 00:13:47;;;;;;;9.37;7.57;;;;;;;28.01;70.02;100631.03;20957570;28;20263;-65
2021/07/09 00:23:48;;;;;;;8.30;7.60;;;;;;;27.90;69.80;100612.38;20828006;28;20239;-67
2021/07/09 00:33:49;;;;;;;8.47;7.67;;;;;;;27.91;69.23;100633.28;20853254;28;20234;-66
2021/07/09 00:43:49;;;;;;;8.80;7.63;;;;;;;28.01;68.80;100767.38;20889103;28;20227;-66
2021/07/09 01:04:02;;;;;;;10.30;8.10;;;;;;;28.20;67.17;100851.75;20825267;27;8592959;-67
2021/07/09 01:14:02;;;;;;;7.63;7.03;;;;;;;27.43;68.70;100877.16;21111442;28;20229;-66
2021/07/09 01:44:05;;;;;;;6.33;5.50;;;;;;;26.31;70.36;100856.56;20595078;27;8622095;-67
2021/07/09 02:33:58;;;;;;;11.57;10.37;;;;;;;25.29;82.70;100734.94;20659072;28;8626805;-68
2021/07/09 02:43:59;;;;;;;14.07;11.70;;;;;;;24.83;85.08;100664.97;20925850;28;20700;-68
2021/07/09 02:54:00;;;;;;;11.70;10.67;;;;;;;24.92;85.51;100670.19;20932733;28;20222;-67
2021/07/09 03:04:00;;;;;;;9.90;8.97;;;;;;;25.42;81.36;100688.72;20938601;28;20235;-66
2021/07/09 03:14:01;;;;;;;9.80;9.07;;;;;;;25.85;80.76;100628.78;20959664;28;20552;-66
2021/07/09 03:24:04;;;;;;;9.50;8.60;;;;;;;26.27;77.03;100594.38;20937484;28;20549;-64
2021/07/09 03:34:05;;;;;;;8.83;7.50;;;;;;;27.11;70.96;100557.09;20955117;28;20277;-65
2021/07/09 03:44:07;;;;;;;9.67;7.90;;;;;;;27.04;72.60;100558.94;20877443;28;20850;-66
2021/07/09 03:54:08;;;;;;;8.07;7.00;;;;;;;31.23;61.75;100612.19;20892352;28;20676;-66
2021/07/09 04:04:08;;;;;;;5.83;5.33;;;;;;;32.05;54.28;100563.09;20896594;28;20235;-67
2021/07/09 04:24:17;;;;;;;6.07;5.43;;;;;;;28.30;64.36;100542.06;20553098;27;8605684;-66
2021/07/09 04:34:17;;;;;;;6.27;5.67;;;;;;;28.39;68.41;100559.16;20802409;28;20255;-66
2021/07/09 04:44:18;;;;;;;5.57;5.17;;;;;;;30.63;61.68;100555.88;20796081;28;20232;-66
2021/07/09 04:54:19;;;;;;;6.20;5.60;;;;;;;29.25;63.69;100538.03;20821651;28;20220;-66
2021/07/09 05:04:19;;;;;;;6.10;5.50;;;;;;;30.32;61.73;100552.00;20835352;28;20226;-67
2021/07/09 05:14:20;;;;;;;5.80;5.23;;;;;;;32.14;59.39;100545.97;20866598;28;20238;-68
2021/07/09 05:24:24;;;;;;;7.57;5.18;;;;;;;33.56;57.08;100532.13;20929366;28;20647;-69
2021/07/09 05:34:32;;;;;;;5.60;4.75;;;;;;;33.79;52.90;100515.47;20826104;28;20567;-68
2021/07/09 05:44:33;;;;;;;5.38;4.25;;;;;;;33.95;54.47;100542.38;20800683;28;20267;-70
2021/07/09 05:57:33;;;;;;;4.95;3.75;;;;;;;35.36;47.24;100584.00;20750331;27;8531999;-61
2021/07/09 06:07:34;;;;;;;4.40;4.03;;;;;;;36.11;49.96;100588.06;21055668;28;20733;-64
2021/07/09 06:17:34;;;;;;;4.80;4.28;;;;;;;37.60;48.09;100601.09;21057276;28;20248;-64
2021/07/09 06:27:35;;;;;;;4.22;3.70;;;;;;;38.75;47.19;100619.41;21056399;28;20286;-60
2021/07/09 06:37:36;;;;;;;4.50;4.10;;;;;;;39.34;46.89;100666.34;21055642;28;20721;-61
2021/07/09 06:47:37;;;;;;;5.03;4.13;;;;;;;39.05;46.27;100668.00;21055108;28;20318;-60
2021/07/09 06:57:38;;;;;;;5.05;4.25;;;;;;;38.52;43.23;100647.81;21138324;28;20225;-65
2021/07/09 07:07:39;;;;;;;4.40;4.07;;;;;;;37.98;46.23;100603.53;21085129;28;20686;-61
2021/07/09 07:17:40;;;;;;;4.95;4.45;;;;;;;37.94;45.80;100585.69;21080412;28;20305;-60
2021/07/09 07:27:41;;;;;;;9.02;5.05;;;;;;;37.83;45.95;100584.81;21079543;28;20623;-60
2021/07/09 07:37:41;;;;;;;5.47;4.97;;;;;;;37.06;47.42;100565.09;21078932;28;20271;-60
2021/07/09 07:47:42;;;;;;;6.35;5.75;;;;;;;36.72;48.05;100567.31;21076831;28;20245;-60
2021/07/09 07:57:43;;;;;;;8.68;6.45;;;;;;;36.93;47.56;100573.91;21076037;28;20218;-60
2021/07/09 08:07:43;;;;;;;6.10;5.60;;;;;;;38.46;47.25;100587.53;21076462;28;20711;-60
2021/07/09 08:17:44;;;;;;;7.20;5.97;;;;;;;40.09;44.57;100630.16;21073436;28;20234;-60
2021/07/09 08:27:44;;;;;;;6.90;6.32;;;;;;;38.64;45.09;100662.38;21074720;28;20260;-64
2021/07/09 08:37:45;;;;;;;9.30;7.07;;;;;;;33.88;50.76;100613.69;21073956;28;20246;-60
2021/07/09 08:47:47;;;;;;;8.27;7.47;;;;;;;33.87;52.77;100600.91;21070757;28;20222;-64
2021/07/09 08:57:48;;;;;;;9.32;8.32;;;;;;;33.44;52.02;100572.81;21071187;28;20230;-60
2021/07/09 09:07:58;;;;;;;7.43;6.80;;;;;;;33.49;52.88;100557.16;21071994;28;20226;-59
2021/07/09 09:17:58;;;;;;;8.95;8.07;;;;;;;33.37;53.88;100527.81;21070178;28;20225;-61
2021/07/09 09:28:11;;;;;;;7.35;6.85;;;;;;;33.84;53.90;100546.00;21057890;28;20257;-60
2021/07/09 09:38:14;;;;;;;8.13;7.43;;;;;;;34.25;54.22;100531.03;21069919;28;20646;-61
2021/07/09 09:48:14;;;;;;;7.57;7.00;;;;;;;35.10;52.88;100541.13;21068002;28;20308;-59
2021/07/09 09:58:19;;;;;;;7.47;6.88;;;;;;;35.68;50.72;100546.13;21068983;28;20762;-60
2021/07/09 10:08:24;;;;;;;8.65;7.95;;;;;;;35.70;51.07;100532.81;21068717;28;20947;-61
2021/07/09 10:18:25;;;;;;;8.45;7.80;;;;;;;35.79;50.93;100536.00;21067081;28;20242;-60
2021/07/09 10:28:26;;;;;;;8.10;7.50;;;;;;;37.12;48.96;100550.09;21066376;28;20219;-60
2021/07/09 10:38:38;;;;;;;10.65;8.63;;;;;;;37.62;45.28;100534.81;21074701;28;20280;-61
2021/07/09 10:48:39;;;;;;;12.85;10.60;;;;;;;36.24;48.91;100505.13;21081555;28;20780;-60
2021/07/09 10:58:41;;;;;;;9.52;8.73;;;;;;;36.50;49.05;100497.84;21082036;28;20363;-60
2021/07/09 11:08:53;;;;;;;10.60;9.55;;;;;;;36.20;49.90;100475.31;21081594;28;20229;-59
2021/07/09 11:19:04;;;;;;;9.82;8.82;;;;;;;36.56;49.29;100474.56;21080263;28;20236;-61
2021/07/09 11:29:25;;;;;;;13.02;10.10;;;;;;;36.25;48.30;100456.78;21079763;28;20269;-60
2021/07/09 11:39:47;;;;;;;11.55;9.95;;;;;;;36.42;49.84;100456.66;21079056;28;20242;-60
2021/07/09 11:49:53;;;;;;;9.50;8.57;;;;;;;37.15;47.07;100444.66;21058139;28;20229;-64
2021/07/09 11:59:56;;;;;;;9.65;8.80;;;;;;;37.20;49.51;100441.06;21076863;28;20257;-60
2021/07/09 12:09:58;;;;;;;8.73;7.97;;;;;;;37.12;48.30;100434.03;21076526;28;20225;-60
2021/07/09 12:20:01;;;;;;;10.15;9.20;;;;;;;37.15;48.02;100424.31;21075510;28;20579;-61
2021/07/09 12:30:14;;;;;;;8.38;7.75;;;;;;;37.86;43.76;100407.88;21074671;28;20279;-60
2021/07/09 12:40:17;;;;;;;9.15;8.45;;;;;;;38.12;44.08;100398.47;21073893;28;20263;-62
2021/07/09 12:50:32;;;;;;;7.47;6.93;;;;;;;38.11;43.67;100385.63;21071695;28;20217;-64
2021/07/09 13:00:41;;;;;;;6.55;6.00;;;;;;;39.23;43.00;100379.84;21071745;28;20630;-60
2021/07/09 13:10:41;;;;;;;7.20;6.70;;;;;;;40.00;43.75;100375.47;21071582;28;20241;-59
2021/07/09 13:20:42;;;;;;;6.45;6.05;;;;;;;39.57;42.59;100346.44;21071117;28;20213;-61
2021/07/09 13:30:49;;;;;;;6.32;5.80;;;;;;;39.43;42.06;100340.66;21070109;28;20214;-59
2021/07/09 13:40:51;;;;;;;6.75;6.25;;;;;;;39.35;41.20;100298.53;21041764;28;20233;-61
2021/07/09 14:00:59;;;;;;;7.32;6.63;;;;;;;38.43;40.27;100289.66;20568704;27;8620839;-60
2021/07/09 14:11:02;;;;;;;6.10;5.70;;;;;;;38.36;43.28;100270.47;20849006;28;20235;-60
2021/07/09 14:21:02;;;;;;;6.43;5.93;;;;;;;37.78;43.11;100235.72;20856298;28;20280;-60
2021/07/09 14:41:15;;;;;;;7.30;6.60;;;;;;;38.69;42.64;100313.63;20450985;27;8071256;-63
2021/07/09 15:01:23;;;;;;;7.38;5.85;;;;;;;38.18;43.06;100263.53;20599682;27;8343395;-59
2021/07/09 15:11:24;;;;;;;6.65;6.07;;;;;;;37.72;45.99;100331.53;20860347;28;20249;-60
2021/07/09 15:55:59;;;;;;;7.93;3.10;;;;;;;25.94;63.58;100458.13;20735089;27;8356470;-60
2021/07/09 17:48:42;;;;;;;24.03;7.13;;;;;;;24.23;96.00;100433.88;20571691;27;8447151;-70
2021/07/09 18:48:55;;;;;;;9.23;6.50;;;;;;;22.67;100.00;100472.06;20675615;27;8249044;-72
2021/07/09 18:58:55;;;;;;;9.40;6.53;;;;;;;23.09;99.85;100472.66;20894242;28;20551;-69
2021/07/09 19:19:03;;;;;;;8.93;5.67;;;;;;;23.53;96.30;100513.03;20712504;27;9004294;-72
2021/07/09 19:49:07;;;;;;;9.63;7.17;;;;;;;22.78;100.00;100504.41;20599738;27;8321116;-66
2021/07/09 19:59:09;;;;;;;10.07;7.30;;;;;;;22.63;100.00;100499.63;20799201;28;20799;-67
2021/07/09 20:09:10;;;;;;;8.70;6.77;;;;;;;22.71;100.00;100489.72;20765470;28;20224;-67
2021/07/09 20:19:11;;;;;;;9.80;7.22;;;;;;;22.71;100.00;100447.03;20744671;28;21000;-68
2021/07/09 20:29:11;;;;;;;11.50;8.60;;;;;;;22.50;100.00;100450.34;20738635;28;20224;-69
2021/07/09 20:39:12;;;;;;;12.07;8.02;;;;;;;22.57;100.00;100458.66;20758898;28;20220;-68
2021/07/09 20:49:13;;;;;;;11.10;8.80;;;;;;;22.47;100.00;100449.81;20741945;28;20831;-67
2021/07/09 20:59:14;;;;;;;14.93;9.07;;;;;;;22.46;100.00;100429.09;20707114;28;20295;-62
2021/07/09 21:09:16;;;;;;;13.70;9.73;;;;;;;22.34;100.00;100422.31;20675072;28;20220;-63
2021/07/09 21:19:17;;;;;;;17.47;9.90;;;;;;;22.44;100.00;100423.84;20701467;28;20225;-63
2021/07/09 21:29:17;;;;;;;13.20;8.73;;;;;;;22.55;100.00;100456.13;20675747;28;20228;-62
2021/07/09 21:39:18;;;;;;;14.67;9.33;;;;;;;22.64;100.00;100449.63;20679873;28;20267;-61
2021/07/09 21:49:19;;;;;;;16.83;10.03;;;;;;;22.67;100.00;100472.06;20692394;28;20248;-62
2021/07/09 21:59:20;;;;;;;15.93;10.30;;;;;;;22.59;100.00;100476.50;20692066;28;20223;-66
2021/07/09 22:09:20;;;;;;;20.63;10.17;;;;;;;22.66;100.00;100497.56;20732230;28;20241;-61
2021/07/09 22:19:21;;;;;;;19.63;11.50;;;;;;;22.77;100.00;100478.19;20694222;28;20555;-61
2021/07/09 22:29:21;;;;;;;16.47;10.93;;;;;;;22.84;100.00;100495.53;20729346;28;20740;-61
2021/07/09 22:39:23;;;;;;;19.43;11.30;;;;;;;22.97;100.00;100520.34;20718589;28;20223;-64
2021/07/09 22:49:24;;;;;;;16.53;9.97;;;;;;;22.88;100.00;100538.56;20642186;28;20539;-62
2021/07/09 22:59:24;;;;;;;18.30;10.97;;;;;;;22.94;100.00;100515.25;20665012;28;20229;-62
2021/07/09 23:09:32;;;;;;;20.15;11.45;;;;;;;22.96;100.00;100507.75;20630836;28;20249;-62
2021/07/09 23:19:33;;;;;;;16.33;10.73;;;;;;;22.97;100.00;100533.94;20646774;28;20260;-62
2021/07/09 23:29:33;;;;;;;16.80;10.23;;;;;;;23.03;100.00;100555.03;20623118;28;20221;-62
2021/07/09 23:39:34;;;;;;;17.13;10.43;;;;;;;22.87;100.00;100539.56;20646927;28;20231;-60
2021/07/09 23:49:35;;;;;;;18.87;11.60;;;;;;;22.93;100.00;100544.34;20705661;28;20219;-60
2021/07/09 23:59:36;;;;;;;20.43;11.97;;;;;;;22.88;100.00;100551.31;20724896;28;20909;-61
